sensor_id;sensor_type;location;lat;lon;timestamp;temperature;humidity
8436;DHT22;4255;48.730;9.156;2022-10-26T00:02:22;14.40;99.90
8436;DHT22;4255;48.730;9.156;2022-10-26T00:04:48;14.40;99.90
8436;DHT22;4255;48.730;9.156;2022-10-26T00:07:14;14.40;99.90
8436;DHT22;4255;48.730;9.156;2022-10-26T00:09:39;14.40;99.90
8436;DHT22;4255;48.730;9.156;2022-10-26T00:12:05;14.40;99.90
8436;DHT22;4255;48.730;9.156;2022-10-26T00:14:31;14.40;99.90
8436;DHT22;4255;48.730;9.156;2022-10-26T00:16:56;14.40;99.90
8436;DHT22;4255;48.730;9.156;2022-10-26T00:19:22;14.40;99.90
8436;DHT22;4255;48.730;9.156;2022-10-26T00:21:48;14.40;99.90
8436;DHT22;4255;48.730;9.156;2022-10-26T00:24:13;14.40;99.90
8436;DHT22;4255;48.730;9.156;2022-10-26T00:26:40;14.50;99.90
8436;DHT22;4255;48.730;9.156;2022-10-26T00:29:05;14.50;99.90
8436;DHT22;4255;48.730;9.156;2022-10-26T00:31:31;14.40;99.90
8436;DHT22;4255;48.730;9.156;2022-10-26T00:33:57;14.40;99.90
8436;DHT22;4255;48.730;9.156;2022-10-26T00:36:24;14.50;99.90
8436;DHT22;4255;48.730;9.156;2022-10-26T00:38:52;14.70;99.90
8436;DHT22;4255;48.730;9.156;2022-10-26T00:41:20;14.60;99.90
8436;DHT22;4255;48.730;9.156;2022-10-26T00:43:46;14.60;99.90
8436;DHT22;4255;48.730;9.156;2022-10-26T00:46:16;14.70;99.90
8436;DHT22;4255;48.730;9.156;2022-10-26T00:49:11;14.70;99.90
8436;DHT22;4255;48.730;9.156;2022-10-26T00:51:46;14.70;99.90
8436;DHT22;4255;48.730;9.156;2022-10-26T00:54:16;14.60;99.90
8436;DHT22;4255;48.730;9.156;2022-10-26T00:56:48;14.50;99.90
8436;DHT22;4255;48.730;9.156;2022-10-26T00:59:16;14.40;99.90
8436;DHT22;4255;48.730;9.156;2022-10-26T01:01:46;14.40;99.90
8436;DHT22;4255;48.730;9.156;2022-10-26T01:04:14;14.30;99.90
8436;DHT22;4255;48.730;9.156;2022-10-26T01:06:41;14.30;99.90
8436;DHT22;4255;48.730;9.156;2022-10-26T01:09:08;14.30;99.90
8436;DHT22;4255;48.730;9.156;2022-10-26T01:11:34;14.30;99.90
8436;DHT22;4255;48.730;9.156;2022-10-26T01:14:02;14.40;99.90
8436;DHT22;4255;48.730;9.156;2022-10-26T01:28:14;14.60;99.90
8436;DHT22;4255;48.730;9.156;2022-10-26T01:30:44;14.70;99.90
8436;DHT22;4255;48.730;9.156;2022-10-26T01:33:32;14.70;99.90
8436;DHT22;4255;48.730;9.156;2022-10-26T01:39:04;14.90;99.90
8436;DHT22;4255;48.730;9.156;2022-10-26T01:41:47;14.90;99.90
8436;DHT22;4255;48.730;9.156;2022-10-26T01:44:36;14.90;99.90
8436;DHT22;4255;48.730;9.156;2022-10-26T01:47:07;14.90;99.90
8436;DHT22;4255;48.730;9.156;2022-10-26T01:49:37;14.90;99.90
8436;DHT22;4255;48.730;9.156;2022-10-26T01:52:04;15.00;99.90
8436;DHT22;4255;48.730;9.156;2022-10-26T01:54:33;15.00;99.90
8436;DHT22;4255;48.730;9.156;2022-10-26T01:57:01;15.00;99.90
8436;DHT22;4255;48.730;9.156;2022-10-26T01:59:37;14.90;99.90
8436;DHT22;4255;48.730;9.156;2022-10-26T02:08:13;15.00;99.90
8436;DHT22;4255;48.730;9.156;2022-10-26T02:11:11;15.00;99.90
8436;DHT22;4255;48.730;9.156;2022-10-26T02:13:51;15.10;99.90
8436;DHT22;4255;48.730;9.156;2022-10-26T02:21:24;14.90;99.90
8436;DHT22;4255;48.730;9.156;2022-10-26T02:23:54;14.90;99.90
8436;DHT22;4255;48.730;9.156;2022-10-26T02:26:24;14.90;99.90
8436;DHT22;4255;48.730;9.156;2022-10-26T02:28:54;14.90;99.90
8436;DHT22;4255;48.730;9.156;2022-10-26T02:31:23;14.80;99.90
8436;DHT22;4255;48.730;9.156;2022-10-26T02:33:50;14.80;99.90
8436;DHT22;4255;48.730;9.156;2022-10-26T02:36:22;14.70;99.90
8436;DHT22;4255;48.730;9.156;2022-10-26T02:38:50;14.60;99.90
8436;DHT22;4255;48.730;9.156;2022-10-26T02:41:17;14.60;99.90
8436;DHT22;4255;48.730;9.156;2022-10-26T02:43:52;14.50;99.90
8436;DHT22;4255;48.730;9.156;2022-10-26T02:46:21;14.50;99.90
8436;DHT22;4255;48.730;9.156;2022-10-26T02:48:48;14.40;99.90
8436;DHT22;4255;48.730;9.156;2022-10-26T02:51:43;14.50;99.90
8436;DHT22;4255;48.730;9.156;2022-10-26T02:56:56;14.60;99.90
8436;DHT22;4255;48.730;9.156;2022-10-26T02:59:26;14.60;99.90
8436;DHT22;4255;48.730;9.156;2022-10-26T03:01:52;14.60;99.90
8436;DHT22;4255;48.730;9.156;2022-10-26T03:04:18;14.50;99.90
8436;DHT22;4255;48.730;9.156;2022-10-26T03:06:54;14.50;99.90
8436;DHT22;4255;48.730;9.156;2022-10-26T03:09:19;14.50;99.90
8436;DHT22;4255;48.730;9.156;2022-10-26T03:11:45;14.60;99.90
8436;DHT22;4255;48.730;9.156;2022-10-26T03:14:11;14.70;99.90
8436;DHT22;4255;48.730;9.156;2022-10-26T03:16:36;14.70;99.90
8436;DHT22;4255;48.730;9.156;2022-10-26T03:19:02;14.70;99.90
8436;DHT22;4255;48.730;9.156;2022-10-26T03:21:27;14.60;99.90
8436;DHT22;4255;48.730;9.156;2022-10-26T03:23:53;14.70;99.90
8436;DHT22;4255;48.730;9.156;2022-10-26T03:26:19;14.60;99.90
8436;DHT22;4255;48.730;9.156;2022-10-26T03:28:45;14.60;99.90
8436;DHT22;4255;48.730;9.156;2022-10-26T03:31:10;14.70;99.90
8436;DHT22;4255;48.730;9.156;2022-10-26T03:33:36;14.70;99.90
8436;DHT22;4255;48.730;9.156;2022-10-26T03:36:02;14.60;99.90
8436;DHT22;4255;48.730;9.156;2022-10-26T03:38:27;14.50;99.90
8436;DHT22;4255;48.730;9.156;2022-10-26T03:40:53;14.30;99.90
8436;DHT22;4255;48.730;9.156;2022-10-26T03:43:18;14.20;99.90
8436;DHT22;4255;48.730;9.156;2022-10-26T03:45:44;14.20;99.90
8436;DHT22;4255;48.730;9.156;2022-10-26T03:48:10;14.30;99.90
8436;DHT22;4255;48.730;9.156;2022-10-26T03:50:35;14.30;99.90
8436;DHT22;4255;48.730;9.156;2022-10-26T03:53:02;14.30;99.90
8436;DHT22;4255;48.730;9.156;2022-10-26T03:55:28;14.40;99.90
8436;DHT22;4255;48.730;9.156;2022-10-26T03:57:53;14.40;99.90
8436;DHT22;4255;48.730;9.156;2022-10-26T04:00:19;14.40;99.90
8436;DHT22;4255;48.730;9.156;2022-10-26T04:02:52;14.60;99.90
8436;DHT22;4255;48.730;9.156;2022-10-26T04:05:18;14.40;99.90
8436;DHT22;4255;48.730;9.156;2022-10-26T04:07:43;14.50;99.90
8436;DHT22;4255;48.730;9.156;2022-10-26T04:10:15;14.60;99.90
8436;DHT22;4255;48.730;9.156;2022-10-26T04:12:41;14.60;99.90
8436;DHT22;4255;48.730;9.156;2022-10-26T04:15:07;14.80;99.90
8436;DHT22;4255;48.730;9.156;2022-10-26T04:17:33;15.00;99.90
8436;DHT22;4255;48.730;9.156;2022-10-26T04:19:58;15.20;99.90
8436;DHT22;4255;48.730;9.156;2022-10-26T04:22:24;15.30;99.90
8436;DHT22;4255;48.730;9.156;2022-10-26T04:24:49;15.30;99.90
8436;DHT22;4255;48.730;9.156;2022-10-26T04:27:15;15.30;99.90
8436;DHT22;4255;48.730;9.156;2022-10-26T04:29:40;15.40;99.90
8436;DHT22;4255;48.730;9.156;2022-10-26T04:32:06;15.30;99.90
8436;DHT22;4255;48.730;9.156;2022-10-26T04:34:32;15.20;99.90
8436;DHT22;4255;48.730;9.156;2022-10-26T04:36:57;15.10;99.90
8436;DHT22;4255;48.730;9.156;2022-10-26T04:39:23;14.70;99.90
8436;DHT22;4255;48.730;9.156;2022-10-26T04:41:50;14.60;99.90
8436;DHT22;4255;48.730;9.156;2022-10-26T04:44:15;14.60;99.90
8436;DHT22;4255;48.730;9.156;2022-10-26T04:46:41;14.50;99.90
8436;DHT22;4255;48.730;9.156;2022-10-26T04:49:06;14.50;99.90
8436;DHT22;4255;48.730;9.156;2022-10-26T04:51:32;14.60;99.90
8436;DHT22;4255;48.730;9.156;2022-10-26T04:53:57;14.70;99.90
8436;DHT22;4255;48.730;9.156;2022-10-26T04:56:23;14.70;99.90
8436;DHT22;4255;48.730;9.156;2022-10-26T04:58:49;14.70;99.90
8436;DHT22;4255;48.730;9.156;2022-10-26T05:01:14;14.80;99.90
8436;DHT22;4255;48.730;9.156;2022-10-26T05:03:40;14.70;99.90
8436;DHT22;4255;48.730;9.156;2022-10-26T05:06:05;14.80;99.90
8436;DHT22;4255;48.730;9.156;2022-10-26T05:08:31;14.70;99.90
8436;DHT22;4255;48.730;9.156;2022-10-26T05:10:56;14.70;99.90
8436;DHT22;4255;48.730;9.156;2022-10-26T05:13:22;14.60;99.90
8436;DHT22;4255;48.730;9.156;2022-10-26T05:15:51;14.70;99.90
8436;DHT22;4255;48.730;9.156;2022-10-26T05:18:17;14.80;99.90
8436;DHT22;4255;48.730;9.156;2022-10-26T05:20:42;14.90;99.90
8436;DHT22;4255;48.730;9.156;2022-10-26T05:23:10;14.80;99.90
8436;DHT22;4255;48.730;9.156;2022-10-26T05:25:37;14.80;99.90
8436;DHT22;4255;48.730;9.156;2022-10-26T05:28:07;14.80;99.90
8436;DHT22;4255;48.730;9.156;2022-10-26T05:30:34;14.80;99.90
8436;DHT22;4255;48.730;9.156;2022-10-26T05:33:01;14.80;99.90
8436;DHT22;4255;48.730;9.156;2022-10-26T05:35:27;14.90;99.90
8436;DHT22;4255;48.730;9.156;2022-10-26T05:37:53;14.90;99.90
8436;DHT22;4255;48.730;9.156;2022-10-26T05:40:19;15.00;99.90
8436;DHT22;4255;48.730;9.156;2022-10-26T05:42:45;15.10;99.90
8436;DHT22;4255;48.730;9.156;2022-10-26T05:45:11;15.00;99.90
8436;DHT22;4255;48.730;9.156;2022-10-26T05:47:41;14.90;99.90
8436;DHT22;4255;48.730;9.156;2022-10-26T05:50:08;15.10;99.90
8436;DHT22;4255;48.730;9.156;2022-10-26T05:52:44;15.20;99.90
8436;DHT22;4255;48.730;9.156;2022-10-26T05:55:12;15.40;99.90
8436;DHT22;4255;48.730;9.156;2022-10-26T05:57:38;15.40;99.90
8436;DHT22;4255;48.730;9.156;2022-10-26T06:00:09;15.40;99.90
8436;DHT22;4255;48.730;9.156;2022-10-26T06:05:44;15.30;99.90
8436;DHT22;4255;48.730;9.156;2022-10-26T06:08:15;15.30;99.90
8436;DHT22;4255;48.730;9.156;2022-10-26T06:10:40;15.40;99.90
8436;DHT22;4255;48.730;9.156;2022-10-26T06:13:06;15.40;99.90
8436;DHT22;4255;48.730;9.156;2022-10-26T06:15:42;15.40;99.90
8436;DHT22;4255;48.730;9.156;2022-10-26T06:21:34;15.30;99.90
8436;DHT22;4255;48.730;9.156;2022-10-26T06:26:41;15.40;99.90
8436;DHT22;4255;48.730;9.156;2022-10-26T06:29:35;15.40;99.90
8436;DHT22;4255;48.730;9.156;2022-10-26T06:32:02;15.30;99.90
8436;DHT22;4255;48.730;9.156;2022-10-26T06:34:34;15.20;99.90
8436;DHT22;4255;48.730;9.156;2022-10-26T06:37:01;15.10;99.90
8436;DHT22;4255;48.730;9.156;2022-10-26T06:39:29;15.10;99.90
8436;DHT22;4255;48.730;9.156;2022-10-26T06:41:56;15.10;99.90
8436;DHT22;4255;48.730;9.156;2022-10-26T06:44:22;15.10;99.90
8436;DHT22;4255;48.730;9.156;2022-10-26T06:52:26;15.10;99.90
8436;DHT22;4255;48.730;9.156;2022-10-26T06:54:54;15.10;99.90
8436;DHT22;4255;48.730;9.156;2022-10-26T06:57:35;15.20;99.90
8436;DHT22;4255;48.730;9.156;2022-10-26T07:00:16;15.30;99.90
8436;DHT22;4255;48.730;9.156;2022-10-26T07:02:44;15.30;99.90
8436;DHT22;4255;48.730;9.156;2022-10-26T07:05:09;15.40;99.90
8436;DHT22;4255;48.730;9.156;2022-10-26T07:07:40;15.40;99.90
8436;DHT22;4255;48.730;9.156;2022-10-26T07:10:07;15.50;99.90
8436;DHT22;4255;48.730;9.156;2022-10-26T07:12:33;15.50;99.90
8436;DHT22;4255;48.730;9.156;2022-10-26T07:14:59;15.60;99.90
8436;DHT22;4255;48.730;9.156;2022-10-26T07:17:25;15.60;99.90
8436;DHT22;4255;48.730;9.156;2022-10-26T07:19:53;15.70;99.90
8436;DHT22;4255;48.730;9.156;2022-10-26T07:22:18;15.70;99.90
8436;DHT22;4255;48.730;9.156;2022-10-26T07:24:44;15.70;99.90
8436;DHT22;4255;48.730;9.156;2022-10-26T07:27:10;15.80;99.90
8436;DHT22;4255;48.730;9.156;2022-10-26T07:29:35;15.80;99.90
8436;DHT22;4255;48.730;9.156;2022-10-26T07:32:01;15.80;99.90
8436;DHT22;4255;48.730;9.156;2022-10-26T07:34:27;15.80;99.90
8436;DHT22;4255;48.730;9.156;2022-10-26T07:36:52;15.80;99.90
8436;DHT22;4255;48.730;9.156;2022-10-26T07:39:18;15.70;99.90
8436;DHT22;4255;48.730;9.156;2022-10-26T07:41:44;15.80;99.90
8436;DHT22;4255;48.730;9.156;2022-10-26T07:44:10;15.80;99.90
8436;DHT22;4255;48.730;9.156;2022-10-26T07:46:35;15.80;99.90
8436;DHT22;4255;48.730;9.156;2022-10-26T07:49:01;15.80;99.90
8436;DHT22;4255;48.730;9.156;2022-10-26T07:51:27;15.90;99.90
8436;DHT22;4255;48.730;9.156;2022-10-26T07:53:52;15.80;99.90
8436;DHT22;4255;48.730;9.156;2022-10-26T07:56:18;16.00;99.90
8436;DHT22;4255;48.730;9.156;2022-10-26T07:58:43;16.20;99.90
8436;DHT22;4255;48.730;9.156;2022-10-26T08:01:14;16.20;99.90
8436;DHT22;4255;48.730;9.156;2022-10-26T08:03:40;16.20;99.90
8436;DHT22;4255;48.730;9.156;2022-10-26T08:06:06;16.20;99.90
8436;DHT22;4255;48.730;9.156;2022-10-26T08:08:34;16.30;99.90
8436;DHT22;4255;48.730;9.156;2022-10-26T08:10:59;16.30;99.90
8436;DHT22;4255;48.730;9.156;2022-10-26T08:13:25;16.40;99.90
8436;DHT22;4255;48.730;9.156;2022-10-26T08:16:02;16.50;99.90
8436;DHT22;4255;48.730;9.156;2022-10-26T08:18:28;16.50;99.90
8436;DHT22;4255;48.730;9.156;2022-10-26T08:20:54;16.60;99.90
8436;DHT22;4255;48.730;9.156;2022-10-26T08:23:20;16.50;99.90
8436;DHT22;4255;48.730;9.156;2022-10-26T08:25:46;16.60;99.90
8436;DHT22;4255;48.730;9.156;2022-10-26T08:28:12;16.50;99.90
8436;DHT22;4255;48.730;9.156;2022-10-26T08:30:38;16.70;99.90
8436;DHT22;4255;48.730;9.156;2022-10-26T08:33:05;16.80;99.90
8436;DHT22;4255;48.730;9.156;2022-10-26T08:35:32;16.90;99.90
8436;DHT22;4255;48.730;9.156;2022-10-26T08:37:59;16.90;99.90
8436;DHT22;4255;48.730;9.156;2022-10-26T08:40:29;16.90;99.90
8436;DHT22;4255;48.730;9.156;2022-10-26T08:43:11;17.00;99.90
8436;DHT22;4255;48.730;9.156;2022-10-26T08:45:40;17.00;99.90
8436;DHT22;4255;48.730;9.156;2022-10-26T08:48:17;17.00;99.90
8436;DHT22;4255;48.730;9.156;2022-10-26T08:50:45;17.00;99.90
8436;DHT22;4255;48.730;9.156;2022-10-26T08:53:17;16.80;99.90
8436;DHT22;4255;48.730;9.156;2022-10-26T08:55:51;16.90;99.90
8436;DHT22;4255;48.730;9.156;2022-10-26T08:58:22;16.90;99.90
8436;DHT22;4255;48.730;9.156;2022-10-26T09:00:49;17.00;99.90
8436;DHT22;4255;48.730;9.156;2022-10-26T09:03:16;17.20;99.90
8436;DHT22;4255;48.730;9.156;2022-10-26T09:05:48;17.20;99.90
8436;DHT22;4255;48.730;9.156;2022-10-26T09:11:13;17.30;99.90
8436;DHT22;4255;48.730;9.156;2022-10-26T09:14:17;17.50;99.90
8436;DHT22;4255;48.730;9.156;2022-10-26T09:19:49;17.70;99.90
8436;DHT22;4255;48.730;9.156;2022-10-26T09:25:34;17.50;99.90
8436;DHT22;4255;48.730;9.156;2022-10-26T09:28:02;17.70;99.90
8436;DHT22;4255;48.730;9.156;2022-10-26T09:30:29;17.60;99.90
8436;DHT22;4255;48.730;9.156;2022-10-26T09:32:58;17.70;99.90
8436;DHT22;4255;48.730;9.156;2022-10-26T09:35:32;17.90;99.90
8436;DHT22;4255;48.730;9.156;2022-10-26T09:38:08;18.00;99.90
8436;DHT22;4255;48.730;9.156;2022-10-26T09:46:16;18.40;99.90
8436;DHT22;4255;48.730;9.156;2022-10-26T09:48:53;18.40;99.90
8436;DHT22;4255;48.730;9.156;2022-10-26T09:51:19;18.70;99.90
8436;DHT22;4255;48.730;9.156;2022-10-26T09:53:47;19.00;99.90
8436;DHT22;4255;48.730;9.156;2022-10-26T09:56:14;19.30;99.90
8436;DHT22;4255;48.730;9.156;2022-10-26T09:58:41;19.70;99.90
8436;DHT22;4255;48.730;9.156;2022-10-26T10:06:42;20.50;99.90
8436;DHT22;4255;48.730;9.156;2022-10-26T10:11:44;20.40;99.90
8436;DHT22;4255;48.730;9.156;2022-10-26T10:14:16;20.40;99.90
8436;DHT22;4255;48.730;9.156;2022-10-26T10:16:53;20.00;99.90
8436;DHT22;4255;48.730;9.156;2022-10-26T10:19:45;19.80;99.90
8436;DHT22;4255;48.730;9.156;2022-10-26T10:22:18;19.80;99.90
8436;DHT22;4255;48.730;9.156;2022-10-26T10:24:56;19.80;99.90
8436;DHT22;4255;48.730;9.156;2022-10-26T10:27:23;20.00;99.90
8436;DHT22;4255;48.730;9.156;2022-10-26T10:29:51;20.10;99.90
8436;DHT22;4255;48.730;9.156;2022-10-26T10:32:28;20.00;99.90
8436;DHT22;4255;48.730;9.156;2022-10-26T10:34:59;20.10;99.90
8436;DHT22;4255;48.730;9.156;2022-10-26T10:37:39;20.20;99.90
8436;DHT22;4255;48.730;9.156;2022-10-26T10:40:08;20.30;99.90
8436;DHT22;4255;48.730;9.156;2022-10-26T10:42:40;20.40;99.90
8436;DHT22;4255;48.730;9.156;2022-10-26T10:45:13;20.40;99.90
8436;DHT22;4255;48.730;9.156;2022-10-26T10:48:04;20.20;99.90
8436;DHT22;4255;48.730;9.156;2022-10-26T10:50:38;20.30;99.90
8436;DHT22;4255;48.730;9.156;2022-10-26T10:59:10;20.80;99.90
8436;DHT22;4255;48.730;9.156;2022-10-26T11:05:20;21.10;99.90
8436;DHT22;4255;48.730;9.156;2022-10-26T11:07:20;21.00;99.90
8436;DHT22;4255;48.730;9.156;2022-10-26T11:09:48;20.90;99.90
8436;DHT22;4255;48.730;9.156;2022-10-26T11:12:25;20.90;99.90
8436;DHT22;4255;48.730;9.156;2022-10-26T11:14:57;21.20;99.90
8436;DHT22;4255;48.730;9.156;2022-10-26T11:20:23;21.20;99.90
8436;DHT22;4255;48.730;9.156;2022-10-26T11:25:25;21.50;99.90
8436;DHT22;4255;48.730;9.156;2022-10-26T11:27:56;21.50;99.90
8436;DHT22;4255;48.730;9.156;2022-10-26T11:30:24;21.30;99.90
8436;DHT22;4255;48.730;9.156;2022-10-26T11:32:55;21.40;99.90
8436;DHT22;4255;48.730;9.156;2022-10-26T11:43:52;21.60;99.90
8436;DHT22;4255;48.730;9.156;2022-10-26T11:46:25;21.70;99.90
8436;DHT22;4255;48.730;9.156;2022-10-26T11:49:29;21.80;99.90
8436;DHT22;4255;48.730;9.156;2022-10-26T11:54:35;22.30;99.90
8436;DHT22;4255;48.730;9.156;2022-10-26T11:57:03;22.30;99.90
8436;DHT22;4255;48.730;9.156;2022-10-26T11:59:31;22.50;99.90
8436;DHT22;4255;48.730;9.156;2022-10-26T12:02:09;22.30;99.90
8436;DHT22;4255;48.730;9.156;2022-10-26T12:04:38;22.20;99.90
8436;DHT22;4255;48.730;9.156;2022-10-26T12:07:15;22.20;99.90
8436;DHT22;4255;48.730;9.156;2022-10-26T12:09:44;22.20;99.90
8436;DHT22;4255;48.730;9.156;2022-10-26T12:12:35;22.00;99.90
8436;DHT22;4255;48.730;9.156;2022-10-26T12:23:10;21.80;99.90
8436;DHT22;4255;48.730;9.156;2022-10-26T12:25:37;21.80;99.90
8436;DHT22;4255;48.730;9.156;2022-10-26T12:28:03;21.50;99.90
8436;DHT22;4255;48.730;9.156;2022-10-26T12:30:31;21.40;99.90
8436;DHT22;4255;48.730;9.156;2022-10-26T12:33:47;21.60;99.90
8436;DHT22;4255;48.730;9.156;2022-10-26T12:35:44;21.60;99.90
8436;DHT22;4255;48.730;9.156;2022-10-26T12:43:35;22.00;99.90
8436;DHT22;4255;48.730;9.156;2022-10-26T12:48:44;22.30;99.90
8436;DHT22;4255;48.730;9.156;2022-10-26T12:56:31;22.60;99.90
8436;DHT22;4255;48.730;9.156;2022-10-26T13:02:37;22.30;99.90
8436;DHT22;4255;48.730;9.156;2022-10-26T13:07:41;22.60;99.90
8436;DHT22;4255;48.730;9.156;2022-10-26T13:17:55;22.30;99.90
8436;DHT22;4255;48.730;9.156;2022-10-26T13:20:22;22.60;99.90
8436;DHT22;4255;48.730;9.156;2022-10-26T13:22:48;22.70;99.90
8436;DHT22;4255;48.730;9.156;2022-10-26T13:25:28;22.90;99.90
8436;DHT22;4255;48.730;9.156;2022-10-26T13:31:04;23.30;99.90
8436;DHT22;4255;48.730;9.156;2022-10-26T13:33:37;23.40;99.90
8436;DHT22;4255;48.730;9.156;2022-10-26T13:36:29;23.50;99.90
8436;DHT22;4255;48.730;9.156;2022-10-26T13:38:57;23.60;99.90
8436;DHT22;4255;48.730;9.156;2022-10-26T13:41:40;23.50;99.90
8436;DHT22;4255;48.730;9.156;2022-10-26T13:44:16;23.30;99.90
8436;DHT22;4255;48.730;9.156;2022-10-26T13:46:44;23.40;99.90
8436;DHT22;4255;48.730;9.156;2022-10-26T13:49:25;23.20;99.90
8436;DHT22;4255;48.730;9.156;2022-10-26T13:51:52;23.20;99.90
8436;DHT22;4255;48.730;9.156;2022-10-26T13:54:33;23.10;99.90
8436;DHT22;4255;48.730;9.156;2022-10-26T13:59:43;23.00;99.90
8436;DHT22;4255;48.730;9.156;2022-10-26T14:02:23;23.00;99.90
8436;DHT22;4255;48.730;9.156;2022-10-26T14:05:03;23.00;99.90
8436;DHT22;4255;48.730;9.156;2022-10-26T14:10:28;23.10;99.90
8436;DHT22;4255;48.730;9.156;2022-10-26T14:12:54;22.90;99.90
8436;DHT22;4255;48.730;9.156;2022-10-26T14:15:24;22.50;99.90
8436;DHT22;4255;48.730;9.156;2022-10-26T14:17:52;22.30;99.90
8436;DHT22;4255;48.730;9.156;2022-10-26T14:20:20;22.20;99.90
8436;DHT22;4255;48.730;9.156;2022-10-26T14:22:47;22.10;99.90
8436;DHT22;4255;48.730;9.156;2022-10-26T14:25:21;22.00;99.90
8436;DHT22;4255;48.730;9.156;2022-10-26T14:27:47;22.20;99.90
8436;DHT22;4255;48.730;9.156;2022-10-26T14:32:47;22.10;99.90
8436;DHT22;4255;48.730;9.156;2022-10-26T14:35:13;22.10;99.90
8436;DHT22;4255;48.730;9.156;2022-10-26T14:40:16;21.90;99.90
8436;DHT22;4255;48.730;9.156;2022-10-26T14:42:44;21.70;99.90
8436;DHT22;4255;48.730;9.156;2022-10-26T14:45:38;21.60;99.90
8436;DHT22;4255;48.730;9.156;2022-10-26T14:48:05;21.80;99.90
8436;DHT22;4255;48.730;9.156;2022-10-26T14:50:32;21.90;99.90
8436;DHT22;4255;48.730;9.156;2022-10-26T14:53:02;22.00;99.90
8436;DHT22;4255;48.730;9.156;2022-10-26T14:55:50;22.00;99.90
8436;DHT22;4255;48.730;9.156;2022-10-26T14:58:36;21.90;99.90
8436;DHT22;4255;48.730;9.156;2022-10-26T15:03:48;21.90;99.90
8436;DHT22;4255;48.730;9.156;2022-10-26T15:06:44;22.00;99.90
8436;DHT22;4255;48.730;9.156;2022-10-26T15:09:29;22.00;99.90
8436;DHT22;4255;48.730;9.156;2022-10-26T15:11:55;21.90;99.90
8436;DHT22;4255;48.730;9.156;2022-10-26T15:14:21;21.80;99.90
8436;DHT22;4255;48.730;9.156;2022-10-26T15:16:53;21.80;99.90
8436;DHT22;4255;48.730;9.156;2022-10-26T15:19:20;21.90;99.90
8436;DHT22;4255;48.730;9.156;2022-10-26T15:21:49;21.90;99.90
8436;DHT22;4255;48.730;9.156;2022-10-26T15:24:25;21.90;99.90
8436;DHT22;4255;48.730;9.156;2022-10-26T15:26:52;21.70;99.90
8436;DHT22;4255;48.730;9.156;2022-10-26T15:29:51;21.60;99.90
8436;DHT22;4255;48.730;9.156;2022-10-26T15:32:32;21.50;99.90
8436;DHT22;4255;48.730;9.156;2022-10-26T15:35:12;21.50;99.90
8436;DHT22;4255;48.730;9.156;2022-10-26T15:37:38;21.60;99.90
8436;DHT22;4255;48.730;9.156;2022-10-26T15:40:04;21.60;99.90
8436;DHT22;4255;48.730;9.156;2022-10-26T15:42:29;21.70;99.90
8436;DHT22;4255;48.730;9.156;2022-10-26T15:44:55;21.80;99.90
8436;DHT22;4255;48.730;9.156;2022-10-26T15:47:21;22.00;99.90
8436;DHT22;4255;48.730;9.156;2022-10-26T15:49:51;21.90;99.90
8436;DHT22;4255;48.730;9.156;2022-10-26T15:52:16;21.90;99.90
8436;DHT22;4255;48.730;9.156;2022-10-26T15:54:42;22.00;99.90
8436;DHT22;4255;48.730;9.156;2022-10-26T15:57:11;21.90;99.90
8436;DHT22;4255;48.730;9.156;2022-10-26T15:59:38;21.90;99.90
8436;DHT22;4255;48.730;9.156;2022-10-26T16:02:16;21.90;99.90
8436;DHT22;4255;48.730;9.156;2022-10-26T16:04:42;21.90;99.90
8436;DHT22;4255;48.730;9.156;2022-10-26T16:07:12;21.80;99.90
8436;DHT22;4255;48.730;9.156;2022-10-26T16:09:39;21.70;99.90
8436;DHT22;4255;48.730;9.156;2022-10-26T16:12:08;21.60;99.90
8436;DHT22;4255;48.730;9.156;2022-10-26T16:14:34;21.60;99.90
8436;DHT22;4255;48.730;9.156;2022-10-26T16:17:00;21.40;99.90
8436;DHT22;4255;48.730;9.156;2022-10-26T16:19:25;21.30;99.90
8436;DHT22;4255;48.730;9.156;2022-10-26T16:21:51;21.20;99.90
8436;DHT22;4255;48.730;9.156;2022-10-26T16:24:17;21.10;99.90
8436;DHT22;4255;48.730;9.156;2022-10-26T16:26:42;21.00;99.90
8436;DHT22;4255;48.730;9.156;2022-10-26T16:29:08;20.90;99.90
8436;DHT22;4255;48.730;9.156;2022-10-26T16:31:33;20.80;99.90
8436;DHT22;4255;48.730;9.156;2022-10-26T16:33:59;20.60;99.90
8436;DHT22;4255;48.730;9.156;2022-10-26T16:36:25;20.50;99.90
8436;DHT22;4255;48.730;9.156;2022-10-26T16:38:50;20.40;99.90
8436;DHT22;4255;48.730;9.156;2022-10-26T16:41:16;20.30;99.90
8436;DHT22;4255;48.730;9.156;2022-10-26T16:43:43;20.30;99.90
8436;DHT22;4255;48.730;9.156;2022-10-26T16:46:13;20.20;99.90
8436;DHT22;4255;48.730;9.156;2022-10-26T16:48:40;20.10;99.90
8436;DHT22;4255;48.730;9.156;2022-10-26T16:51:15;20.00;99.90
8436;DHT22;4255;48.730;9.156;2022-10-26T16:53:41;19.80;99.90
8436;DHT22;4255;48.730;9.156;2022-10-26T16:56:11;19.80;99.90
8436;DHT22;4255;48.730;9.156;2022-10-26T16:58:38;19.60;99.90
8436;DHT22;4255;48.730;9.156;2022-10-26T17:01:04;19.40;99.90
8436;DHT22;4255;48.730;9.156;2022-10-26T17:03:30;19.20;99.90
8436;DHT22;4255;48.730;9.156;2022-10-26T17:05:58;19.20;99.90
8436;DHT22;4255;48.730;9.156;2022-10-26T17:08:25;19.10;99.90
8436;DHT22;4255;48.730;9.156;2022-10-26T17:10:51;19.20;99.90
8436;DHT22;4255;48.730;9.156;2022-10-26T17:13:16;19.20;99.90
8436;DHT22;4255;48.730;9.156;2022-10-26T17:15:42;19.20;99.90
8436;DHT22;4255;48.730;9.156;2022-10-26T17:18:08;19.20;99.90
8436;DHT22;4255;48.730;9.156;2022-10-26T17:20:35;19.20;99.90
8436;DHT22;4255;48.730;9.156;2022-10-26T17:23:01;19.20;99.90
8436;DHT22;4255;48.730;9.156;2022-10-26T17:25:26;19.10;99.90
8436;DHT22;4255;48.730;9.156;2022-10-26T17:27:52;19.00;99.90
8436;DHT22;4255;48.730;9.156;2022-10-26T17:30:18;18.90;99.90
8436;DHT22;4255;48.730;9.156;2022-10-26T17:32:43;18.60;99.90
8436;DHT22;4255;48.730;9.156;2022-10-26T17:35:09;18.40;99.90
8436;DHT22;4255;48.730;9.156;2022-10-26T17:37:34;18.40;99.90
8436;DHT22;4255;48.730;9.156;2022-10-26T17:40:02;18.40;99.90
8436;DHT22;4255;48.730;9.156;2022-10-26T17:42:29;18.40;99.90
8436;DHT22;4255;48.730;9.156;2022-10-26T17:44:54;18.40;99.90
8436;DHT22;4255;48.730;9.156;2022-10-26T17:47:20;18.50;99.90
8436;DHT22;4255;48.730;9.156;2022-10-26T17:49:45;18.50;99.90
8436;DHT22;4255;48.730;9.156;2022-10-26T17:52:11;18.50;99.90
8436;DHT22;4255;48.730;9.156;2022-10-26T17:54:36;18.50;99.90
8436;DHT22;4255;48.730;9.156;2022-10-26T17:57:02;18.50;99.90
8436;DHT22;4255;48.730;9.156;2022-10-26T17:59:28;18.50;99.90
8436;DHT22;4255;48.730;9.156;2022-10-26T18:01:53;18.50;99.90
8436;DHT22;4255;48.730;9.156;2022-10-26T18:04:19;18.50;99.90
8436;DHT22;4255;48.730;9.156;2022-10-26T18:06:44;18.40;99.90
8436;DHT22;4255;48.730;9.156;2022-10-26T18:09:10;18.30;99.90
8436;DHT22;4255;48.730;9.156;2022-10-26T18:11:35;18.30;99.90
8436;DHT22;4255;48.730;9.156;2022-10-26T18:14:01;18.30;99.90
8436;DHT22;4255;48.730;9.156;2022-10-26T18:16:27;18.20;99.90
8436;DHT22;4255;48.730;9.156;2022-10-26T18:18:55;18.10;99.90
8436;DHT22;4255;48.730;9.156;2022-10-26T18:21:24;18.10;99.90
8436;DHT22;4255;48.730;9.156;2022-10-26T18:23:51;18.00;99.90
8436;DHT22;4255;48.730;9.156;2022-10-26T18:26:22;18.00;99.90
8436;DHT22;4255;48.730;9.156;2022-10-26T18:28:48;17.90;99.90
8436;DHT22;4255;48.730;9.156;2022-10-26T18:31:16;17.90;99.90
8436;DHT22;4255;48.730;9.156;2022-10-26T18:33:42;17.80;99.90
8436;DHT22;4255;48.730;9.156;2022-10-26T18:36:09;17.70;99.90
8436;DHT22;4255;48.730;9.156;2022-10-26T18:38:36;17.60;99.90
8436;DHT22;4255;48.730;9.156;2022-10-26T18:41:02;17.60;99.90